createdAt,value
2019-02-04T00:02:16.547Z,71.97
2019-02-04T00:04:46.636Z,83.92
2019-02-04T00:07:16.866Z,88.90
2019-02-04T00:09:46.869Z,77.33
2019-02-04T00:12:29.187Z,74.73
2019-02-04T00:15:00.965Z,72.23
2019-02-04T00:17:32.304Z,76.20
2019-02-04T00:20:14.445Z,72.23
2019-02-04T00:22:44.567Z,60.80
2019-02-04T00:25:14.807Z,69.73
2019-02-04T00:27:44.795Z,64.10
2019-02-04T00:30:16.338Z,61.97
2019-02-04T00:32:46.457Z,61.73
2019-02-04T00:35:17.126Z,54.38
2019-02-04T00:37:59.229Z,51.37
2019-02-04T00:40:30.328Z,66.20
2019-02-04T00:43:00.322Z,51.67
2019-02-04T00:45:30.600Z,57.58
2019-02-04T00:48:00.616Z,50.77
2019-02-04T00:50:30.691Z,53.00
2019-02-04T00:53:01.008Z,45.53
2019-02-04T00:55:31.172Z,36.53
2019-02-04T00:58:02.383Z,42.80
2019-02-04T01:00:33.833Z,42.10
2019-02-04T01:03:05.292Z,39.88
2019-02-04T01:05:36.793Z,34.40
2019-02-04T01:08:06.831Z,34.63
2019-02-04T01:10:37.176Z,34.75
2019-02-04T01:13:07.371Z,34.87
2019-02-04T01:15:37.732Z,29.80
2019-02-04T01:18:07.898Z,25.43
2019-02-04T01:20:38.581Z,23.35
2019-02-04T01:23:09.671Z,27.47
2019-02-04T01:25:40.020Z,26.87
2019-02-04T01:28:10.240Z,20.17
2019-02-04T01:30:40.383Z,20.37
2019-02-04T01:33:11.146Z,16.67
2019-02-04T01:35:41.286Z,18.13
2019-02-04T01:38:11.330Z,18.37
2019-02-04T01:40:41.425Z,18.80
2019-02-04T01:43:11.735Z,15.65
2019-02-04T01:45:41.760Z,17.67
2019-02-04T01:48:13.459Z,13.43
2019-02-04T01:50:43.653Z,14.00
2019-02-04T01:53:13.720Z,16.47
2019-02-04T01:55:43.691Z,12.07
2019-02-04T01:58:14.875Z,13.40
2019-02-04T02:00:45.114Z,11.90
2019-02-04T02:03:15.122Z,12.07
2019-02-04T02:05:45.176Z,15.47
2019-02-04T02:08:15.399Z,14.23
2019-02-04T02:10:45.549Z,15.17
2019-02-04T02:13:15.933Z,14.83
2019-02-04T02:15:45.907Z,13.27
2019-02-04T02:18:15.953Z,12.07
2019-02-04T02:20:46.026Z,10.60
2019-02-04T02:23:15.997Z,10.67
2019-02-04T02:25:46.078Z,9.93
2019-02-04T02:28:16.032Z,11.10
2019-02-04T02:30:45.993Z,10.03
2019-02-04T02:33:16.090Z,9.53
2019-02-04T02:35:46.089Z,10.53
2019-02-04T02:38:16.304Z,9.40
2019-02-04T02:40:46.785Z,9.90
2019-02-04T02:43:16.842Z,10.03
2019-02-04T02:45:46.980Z,11.23
2019-02-04T02:48:17.494Z,9.27
2019-02-04T02:50:47.530Z,14.00
2019-02-04T02:53:17.663Z,10.13
2019-02-04T02:55:48.021Z,10.83
2019-02-04T02:58:18.145Z,11.57
2019-02-04T03:00:48.160Z,10.30
2019-02-04T03:03:18.124Z,9.20
2019-02-04T03:05:48.227Z,9.13
2019-02-04T03:08:18.686Z,7.83
2019-02-04T03:10:48.778Z,9.00
2019-02-04T03:13:18.905Z,8.27
2019-02-04T03:15:48.963Z,7.60
2019-02-04T03:18:19.112Z,9.43
2019-02-04T03:20:49.461Z,8.23
2019-02-04T03:23:19.422Z,7.53
2019-02-04T03:25:49.426Z,6.80
2019-02-04T03:28:19.368Z,7.77
2019-02-04T03:30:50.957Z,6.43
2019-02-04T03:33:20.986Z,7.15
2019-02-04T03:35:51.078Z,7.53
2019-02-04T03:38:21.162Z,5.60
2019-02-04T03:40:51.246Z,6.73
2019-02-04T03:43:21.439Z,8.07
2019-02-04T03:45:51.518Z,6.37
2019-02-04T03:48:21.887Z,5.80
2019-02-04T03:50:52.537Z,5.28
2019-02-04T03:53:22.559Z,6.93
2019-02-04T03:55:52.745Z,5.00
2019-02-04T03:58:23.002Z,6.73
2019-02-04T04:00:53.479Z,5.23
2019-02-04T04:03:23.539Z,5.97
2019-02-04T04:05:53.675Z,6.13
2019-02-04T04:08:23.748Z,7.33
2019-02-04T04:10:53.785Z,6.13
2019-02-04T04:13:25.320Z,7.97
2019-02-04T04:15:55.301Z,7.53
2019-02-04T04:18:25.623Z,5.50
2019-02-04T04:20:55.776Z,5.13
2019-02-04T04:23:25.713Z,6.43
2019-02-04T04:25:55.675Z,5.27
2019-02-04T04:28:25.685Z,7.57
2019-02-04T04:30:55.802Z,6.23
2019-02-04T04:33:25.791Z,7.30
2019-02-04T04:35:55.998Z,6.10
2019-02-04T04:38:25.920Z,6.87
2019-02-04T04:40:56.098Z,6.67
2019-02-04T04:43:26.072Z,6.87
2019-02-04T04:45:56.092Z,8.10
2019-02-04T04:48:26.846Z,9.07
2019-02-04T04:50:57.038Z,9.03
2019-02-04T04:53:27.030Z,5.73
2019-02-04T04:55:57.123Z,12.53
2019-02-04T04:58:27.415Z,6.93
2019-02-04T05:00:57.583Z,7.13
2019-02-04T05:03:27.695Z,7.03
2019-02-04T05:05:58.903Z,8.03
2019-02-04T05:08:29.182Z,9.07
2019-02-04T05:11:00.963Z,6.33
2019-02-04T05:13:30.990Z,8.50
2019-02-04T05:16:01.068Z,6.77
2019-02-04T05:18:37.713Z,8.53
2019-02-04T05:21:03.406Z,6.83
2019-02-04T05:23:33.616Z,8.93
2019-02-04T05:26:04.862Z,8.90
2019-02-04T05:28:34.780Z,8.93
2019-02-04T05:31:04.843Z,7.13
2019-02-04T05:33:35.012Z,6.37
2019-02-04T05:36:05.230Z,11.20
2019-02-04T05:38:35.359Z,10.70
2019-02-04T05:41:05.789Z,10.80
2019-02-04T05:43:35.902Z,6.70
2019-02-04T05:46:06.139Z,9.47
2019-02-04T05:48:36.152Z,9.43
2019-02-04T05:51:06.197Z,7.03
2019-02-04T05:53:36.293Z,7.13
2019-02-04T05:56:06.628Z,9.37
2019-02-04T05:58:36.899Z,8.20
2019-02-04T06:01:07.432Z,8.80
2019-02-04T06:03:37.601Z,8.10
2019-02-04T06:06:07.631Z,7.90
2019-02-04T06:08:37.784Z,10.33
2019-02-04T06:11:07.973Z,8.40
2019-02-04T06:13:38.179Z,8.20
2019-02-04T06:16:08.484Z,8.37
2019-02-04T06:18:38.477Z,10.17
2019-02-04T06:21:08.636Z,9.70
2019-02-04T06:23:38.695Z,10.23
2019-02-04T06:26:08.797Z,7.37
2019-02-04T06:28:39.068Z,9.10
2019-02-04T06:31:09.146Z,9.70
2019-02-04T06:33:39.146Z,11.70
2019-02-04T06:36:09.202Z,11.07
2019-02-04T06:38:39.230Z,10.57
2019-02-04T06:41:09.512Z,9.50
2019-02-04T06:43:39.513Z,12.27
2019-02-04T06:46:10.539Z,10.03
2019-02-04T06:48:40.479Z,12.60
2019-02-04T06:51:10.860Z,9.83
2019-02-04T06:53:40.946Z,8.77
2019-02-04T06:56:11.285Z,10.03
2019-02-04T06:58:42.303Z,7.77
2019-02-04T07:01:12.960Z,8.83
2019-02-04T07:03:43.118Z,12.37
2019-02-04T07:06:14.861Z,18.10
2019-02-04T07:08:45.737Z,12.33
2019-02-04T07:11:15.808Z,12.60
2019-02-04T07:13:45.981Z,12.93
2019-02-04T07:16:16.353Z,12.93
2019-02-04T07:18:46.632Z,9.87
2019-02-04T07:21:17.188Z,10.93
2019-02-04T07:23:47.368Z,11.80
2019-02-04T07:26:19.444Z,12.73
2019-02-04T07:28:49.575Z,13.00
2019-02-04T07:31:19.711Z,10.60
2019-02-04T07:33:49.924Z,17.00
2019-02-04T07:36:20.424Z,17.30
2019-02-04T07:38:50.643Z,14.83
2019-02-04T07:41:22.458Z,17.57
2019-02-04T07:43:53.983Z,15.67
2019-02-04T07:46:25.067Z,19.57
2019-02-04T07:48:55.451Z,18.47
2019-02-04T07:51:27.330Z,16.07
2019-02-04T07:53:57.358Z,15.47
2019-02-04T07:56:27.559Z,18.07
2019-02-04T07:58:57.660Z,16.97
2019-02-04T08:01:27.816Z,15.93
2019-02-04T08:03:58.553Z,19.90
2019-02-04T08:06:28.623Z,18.00
2019-02-04T08:08:58.998Z,15.73
2019-02-04T08:11:29.288Z,17.30
2019-02-04T08:13:59.426Z,18.57
2019-02-04T08:16:30.195Z,18.37
2019-02-04T08:19:00.299Z,23.60
2019-02-04T08:21:30.492Z,19.30
2019-02-04T08:24:00.795Z,23.27
2019-02-04T08:26:31.083Z,20.83
2019-02-04T08:29:01.179Z,18.90
2019-02-04T08:31:33.006Z,19.83
2019-02-04T08:34:06.025Z,20.90
2019-02-04T08:39:10.112Z,20.00
2019-02-04T08:41:40.235Z,19.27
2019-02-04T08:44:10.696Z,16.30
2019-02-04T08:46:40.881Z,17.70
2019-02-04T08:49:11.271Z,22.87
2019-02-04T08:51:41.374Z,19.03
2019-02-04T08:54:11.620Z,34.93
2019-02-04T08:56:43.126Z,21.50
2019-02-04T08:59:13.417Z,21.70
2019-02-04T09:01:43.619Z,23.57
2019-02-04T09:04:13.855Z,18.47
2019-02-04T09:06:44.140Z,20.77
2019-02-04T09:09:15.140Z,21.07
2019-02-04T09:11:45.579Z,22.17
2019-02-04T09:14:15.830Z,22.05
2019-02-04T09:16:47.350Z,24.87
2019-02-04T09:19:17.496Z,21.77
2019-02-04T09:21:49.349Z,19.47
2019-02-04T09:24:20.461Z,20.40
2019-02-04T09:26:50.697Z,16.67
2019-02-04T09:29:20.808Z,22.17
2019-02-04T09:31:50.920Z,24.57
2019-02-04T09:34:23.463Z,21.07
2019-02-04T09:37:14.988Z,22.43
2019-02-04T09:39:46.470Z,23.50
2019-02-04T09:42:25.103Z,20.00
2019-02-04T09:45:09.661Z,19.17
2019-02-04T09:47:49.499Z,23.53
2019-02-04T09:50:35.209Z,20.53
2019-02-04T09:53:09.551Z,20.80
2019-02-04T09:55:40.049Z,20.03
2019-02-04T09:58:10.334Z,18.53
2019-02-04T10:00:40.445Z,17.80
2019-02-04T10:03:10.672Z,15.90
2019-02-04T10:05:41.143Z,18.40
2019-02-04T10:08:11.320Z,19.55
2019-02-04T10:10:42.492Z,25.45
2019-02-04T10:13:12.811Z,18.93
2019-02-04T10:15:45.686Z,20.10
2019-02-04T10:18:15.081Z,21.40
2019-02-04T10:20:45.792Z,22.50
2019-02-04T10:23:27.347Z,25.33
2019-02-04T10:25:58.986Z,19.90
2019-02-04T10:28:29.326Z,19.07
2019-02-04T10:31:00.947Z,18.53
2019-02-04T10:33:31.402Z,19.97
2019-02-04T10:36:01.428Z,18.33
2019-02-04T10:38:31.608Z,20.37
2019-02-04T10:41:03.090Z,25.25
2019-02-04T10:43:33.721Z,18.87
2019-02-04T10:46:04.762Z,21.13
2019-02-04T10:48:35.340Z,19.10
2019-02-04T10:51:05.752Z,17.73
2019-02-04T10:53:39.474Z,18.40
2019-02-04T10:56:09.918Z,22.07
2019-02-04T10:58:45.498Z,22.40
2019-02-04T11:01:15.601Z,17.13
2019-02-04T11:03:45.840Z,22.93
2019-02-04T11:06:16.075Z,20.60
2019-02-04T11:08:46.366Z,20.87
2019-02-04T11:11:16.405Z,22.10
2019-02-04T11:13:58.153Z,20.60
2019-02-04T11:16:28.448Z,17.43
2019-02-04T11:18:58.694Z,22.93
2019-02-04T11:21:29.085Z,24.17
2019-02-04T11:24:00.084Z,54.10
2019-02-04T11:26:30.485Z,22.82
2019-02-04T11:29:02.015Z,18.47
2019-02-04T11:31:32.202Z,22.10
2019-02-04T11:34:08.624Z,25.90
2019-02-04T11:36:46.479Z,25.23
2019-02-04T11:39:42.356Z,24.97
2019-02-04T11:42:13.634Z,19.97
2019-02-04T11:44:43.761Z,22.10
2019-02-04T11:47:14.000Z,18.73
2019-02-04T11:49:44.106Z,24.40
2019-02-04T11:52:14.166Z,24.97
2019-02-04T11:54:44.202Z,25.57
2019-02-04T11:57:14.745Z,25.67
2019-02-04T11:59:44.779Z,26.50
2019-02-04T12:02:14.961Z,24.27
2019-02-04T12:04:45.931Z,23.80
2019-02-04T12:07:16.560Z,25.27
2019-02-04T12:09:46.808Z,21.10
2019-02-04T12:12:17.035Z,25.67
2019-02-04T12:14:47.660Z,23.17
2019-02-04T12:17:18.091Z,21.23
2019-02-04T12:19:48.163Z,28.27
2019-02-04T12:22:18.397Z,30.03
2019-02-04T12:24:49.548Z,24.27
2019-02-04T12:27:32.076Z,23.47
2019-02-04T12:30:12.224Z,21.90
2019-02-04T12:32:47.872Z,22.97
2019-02-04T12:35:28.186Z,19.63
2019-02-04T12:37:59.532Z,22.67
2019-02-04T12:40:31.495Z,23.37
2019-02-04T12:43:02.717Z,25.40
2019-02-04T12:45:34.534Z,27.37
2019-02-04T12:48:05.111Z,22.43
2019-02-04T12:50:35.889Z,21.77
2019-02-04T12:53:06.808Z,22.13
2019-02-04T12:55:37.082Z,26.70
2019-02-04T12:58:07.650Z,38.77
2019-02-04T13:00:38.232Z,29.57
2019-02-04T13:03:08.398Z,26.60
2019-02-04T13:05:47.170Z,25.13
2019-02-04T13:08:17.336Z,24.27
2019-02-04T13:10:48.518Z,31.20
2019-02-04T13:13:22.072Z,23.90
2019-02-04T13:15:52.351Z,29.50
2019-02-04T13:18:23.076Z,26.70
2019-02-04T13:20:53.277Z,27.97
2019-02-04T13:23:23.309Z,23.33
2019-02-04T13:25:53.450Z,22.43
2019-02-04T13:28:23.869Z,27.30
2019-02-04T13:30:54.003Z,27.27
2019-02-04T13:33:24.314Z,28.03
2019-02-04T13:35:54.344Z,23.93
2019-02-04T13:38:24.620Z,25.67
2019-02-04T13:41:07.239Z,31.40
2019-02-04T13:43:27.831Z,25.03
2019-02-04T13:45:59.188Z,31.50
2019-02-04T13:48:29.846Z,25.43
2019-02-04T13:51:00.061Z,28.67
2019-02-04T13:53:42.000Z,28.07
2019-02-04T13:56:12.135Z,27.60
2019-02-04T13:58:42.312Z,35.33
2019-02-04T14:01:12.450Z,31.07
2019-02-04T14:03:42.658Z,31.17
2019-02-04T14:06:12.848Z,28.70
2019-02-04T14:08:44.559Z,27.93
2019-02-04T14:11:15.839Z,31.30
2019-02-04T14:13:49.064Z,34.70
2019-02-04T14:16:19.163Z,27.57
2019-02-04T14:18:52.178Z,28.27
2019-02-04T14:21:22.621Z,28.30
2019-02-04T14:23:52.791Z,29.40
2019-02-04T14:26:23.058Z,29.10
2019-02-04T14:28:53.815Z,26.40
2019-02-04T14:31:24.258Z,24.83
2019-02-04T14:33:54.573Z,30.93
2019-02-04T14:36:24.741Z,365.40
2019-02-04T14:38:54.911Z,158.47
2019-02-04T14:41:26.010Z,214.43
2019-02-04T14:44:03.071Z,39.07
2019-02-04T14:46:52.349Z,31.73
2019-02-04T14:49:50.065Z,33.77
2019-02-04T14:52:36.879Z,29.63
2019-02-04T14:55:30.397Z,22.97
2019-02-04T14:58:27.139Z,28.27
2019-02-04T15:01:35.547Z,25.70
2019-02-04T15:04:38.768Z,24.97
2019-02-04T15:07:46.781Z,22.27
2019-02-04T15:10:29.959Z,26.40
2019-02-04T15:13:30.773Z,30.23
2019-02-04T15:16:32.520Z,22.80
2019-02-04T15:19:40.910Z,22.80
2019-02-04T15:22:36.939Z,24.80
2019-02-04T15:25:46.272Z,24.67
2019-02-04T15:28:36.750Z,21.70
2019-02-04T15:31:38.015Z,21.63
2019-02-04T15:34:36.724Z,23.63
2019-02-04T15:37:16.535Z,21.77
2019-02-04T15:40:01.094Z,23.50
2019-02-04T15:43:09.830Z,25.03
2019-02-04T15:50:53.049Z,32.93
2019-02-04T15:53:43.958Z,33.67
2019-02-04T15:56:17.523Z,29.53
2019-02-04T15:58:47.579Z,33.73
2019-02-04T16:01:17.752Z,34.20
2019-02-04T16:03:49.098Z,33.87
2019-02-04T16:06:19.326Z,36.00
2019-02-04T16:08:59.035Z,35.57
2019-02-04T16:11:43.667Z,40.77
2019-02-04T16:14:15.332Z,36.90
2019-02-04T16:16:49.018Z,39.50
2019-02-04T16:19:19.755Z,46.10
2019-02-04T16:21:52.706Z,39.43
2019-02-04T16:24:23.678Z,41.77
2019-02-04T16:27:12.287Z,41.30
2019-02-04T16:30:04.346Z,41.00
2019-02-04T16:32:52.783Z,42.27
2019-02-04T16:35:47.928Z,44.40
2019-02-04T16:38:28.510Z,49.93
2019-02-04T16:41:01.468Z,42.10
2019-02-04T16:43:44.174Z,42.40
2019-02-04T16:46:29.677Z,49.13
2019-02-04T16:53:35.029Z,41.97
2019-02-04T16:56:24.590Z,44.63
2019-02-04T16:59:17.676Z,40.97
2019-02-04T17:02:09.067Z,47.07
2019-02-04T17:04:57.606Z,40.00
2019-02-04T17:07:50.639Z,45.60
2019-02-04T17:10:50.832Z,47.43
2019-02-04T17:13:48.867Z,46.70
2019-02-04T17:16:36.881Z,54.53
2019-02-04T17:19:09.647Z,47.10
2019-02-04T17:21:42.167Z,48.97
2019-02-04T17:24:12.678Z,60.53
2019-02-04T17:26:42.807Z,54.97
2019-02-04T17:29:16.414Z,50.13
2019-02-04T17:31:46.678Z,53.57
2019-02-04T17:34:17.423Z,39.87
2019-02-04T17:36:48.099Z,46.47
2019-02-04T17:39:19.490Z,48.73
2019-02-04T17:41:52.050Z,41.93
2019-02-04T17:44:22.290Z,44.10
2019-02-04T17:46:54.127Z,36.27
2019-02-04T17:49:24.383Z,36.57
2019-02-04T17:51:54.749Z,42.70
2019-02-04T17:54:25.280Z,48.77
2019-02-04T17:56:55.467Z,49.87
2019-02-04T17:59:25.448Z,40.13
2019-02-04T18:02:01.427Z,42.17
2019-02-04T18:04:39.620Z,38.07
2019-02-04T18:07:30.634Z,32.53
2019-02-04T18:10:24.125Z,37.33
2019-02-04T18:12:55.409Z,43.30
2019-02-04T18:16:00.126Z,27.53
2019-02-04T18:19:09.357Z,33.53
2019-02-04T18:22:11.728Z,37.27
2019-02-04T18:24:47.279Z,40.57
2019-02-04T18:27:38.072Z,32.97
2019-02-04T18:30:38.264Z,26.07
2019-02-04T18:33:16.223Z,29.53
2019-02-04T18:36:19.319Z,27.00
2019-02-04T18:38:51.710Z,28.03
2019-02-04T18:41:21.882Z,33.27
2019-02-04T18:43:56.896Z,24.53
2019-02-04T18:46:29.238Z,19.03
2019-02-04T18:48:59.361Z,13.50
2019-02-04T18:51:51.719Z,19.60
2019-02-04T18:54:41.717Z,30.80
2019-02-04T18:57:35.034Z,31.10
2019-02-04T19:00:49.084Z,39.80
2019-02-04T19:03:35.285Z,54.80
2019-02-04T19:06:11.507Z,52.37
2019-02-04T19:08:46.426Z,51.37
2019-02-04T19:11:30.576Z,38.00
2019-02-04T19:14:15.386Z,26.47
2019-02-04T19:16:57.537Z,14.10
2019-02-04T19:19:38.031Z,16.47
2019-02-04T19:22:21.308Z,15.50
2019-02-04T19:24:58.701Z,16.67
2019-02-04T19:27:43.348Z,20.70
2019-02-04T19:30:41.386Z,19.30
2019-02-04T19:33:17.021Z,17.63
2019-02-04T19:35:49.526Z,21.90
2019-02-04T19:38:49.110Z,27.57
2019-02-04T19:42:02.947Z,37.20
2019-02-04T19:45:01.338Z,37.10
2019-02-04T19:47:57.377Z,42.83
2019-02-04T19:51:20.680Z,35.23
2019-02-04T19:54:21.686Z,25.43
2019-02-04T19:56:50.131Z,19.93
2019-02-04T19:59:40.767Z,31.07
2019-02-04T20:02:42.278Z,27.43
2019-02-04T20:05:24.489Z,23.17
2019-02-04T20:08:16.783Z,27.27
2019-02-04T20:10:47.993Z,19.03
2019-02-04T20:13:37.071Z,18.47
2019-02-04T20:16:43.738Z,29.40
2019-02-04T20:19:31.341Z,17.43
2019-02-04T20:22:02.076Z,18.97
2019-02-04T20:24:33.502Z,20.27
2019-02-04T20:27:03.867Z,23.33
2019-02-04T20:29:34.323Z,22.47
2019-02-04T20:32:09.456Z,31.60
2019-02-04T20:35:00.805Z,27.93
2019-02-04T20:38:04.824Z,27.93
2019-02-04T20:40:35.934Z,37.50
2019-02-04T20:43:06.960Z,33.33
2019-02-04T20:45:56.374Z,29.93
2019-02-04T20:48:44.067Z,31.27
2019-02-04T20:51:25.540Z,28.00
2019-02-04T20:54:28.426Z,21.27
2019-02-04T20:57:24.750Z,21.10
2019-02-04T21:00:21.150Z,36.10
2019-02-04T21:03:18.479Z,42.30
2019-02-04T21:06:12.450Z,26.50
2019-02-04T21:08:56.720Z,24.23
2019-02-04T21:11:39.321Z,23.93
2019-02-04T21:14:21.103Z,26.63
2019-02-04T21:17:03.122Z,26.23
2019-02-04T21:19:38.798Z,27.77
2019-02-04T21:22:24.706Z,27.07
2019-02-04T21:25:10.835Z,29.10
2019-02-04T21:27:52.334Z,32.60
2019-02-04T21:30:42.043Z,40.07
2019-02-04T21:33:30.279Z,44.43
2019-02-04T21:36:13.642Z,31.10
2019-02-04T21:38:45.278Z,32.87
2019-02-04T21:41:19.951Z,29.37
2019-02-04T21:43:51.172Z,32.60
2019-02-04T21:46:21.986Z,32.77
2019-02-04T21:48:52.069Z,32.43
2019-02-04T21:51:22.303Z,48.63
2019-02-04T21:53:53.759Z,36.73
2019-02-04T21:56:27.390Z,38.40
2019-02-04T21:58:57.763Z,33.60
2019-02-04T22:01:27.966Z,35.90
2019-02-04T22:04:01.859Z,37.00
2019-02-04T22:06:37.991Z,31.23
2019-02-04T22:09:11.000Z,36.53
2019-02-04T22:11:43.457Z,40.37
2019-02-04T22:14:17.009Z,39.40
2019-02-04T22:16:51.165Z,34.37
2019-02-04T22:19:22.828Z,27.30
2019-02-04T22:21:53.296Z,23.13
2019-02-04T22:24:23.583Z,37.87
2019-02-04T22:26:53.573Z,34.77
2019-02-04T22:29:25.173Z,31.70
2019-02-04T22:31:57.853Z,40.23
2019-02-04T22:34:28.366Z,24.03
2019-02-04T22:37:17.522Z,29.87
2019-02-04T22:39:47.827Z,26.57
2019-02-04T22:42:17.876Z,31.63
2019-02-04T22:44:47.934Z,29.80
2019-02-04T22:47:18.195Z,35.70
2019-02-04T22:49:48.432Z,32.07
2019-02-04T22:52:18.514Z,30.17
2019-02-04T22:54:48.700Z,26.37
2019-02-04T22:57:18.786Z,26.97
2019-02-04T22:59:48.765Z,28.53
2019-02-04T23:02:18.905Z,23.60
2019-02-04T23:04:50.209Z,30.93
2019-02-04T23:07:20.456Z,28.27
2019-02-04T23:09:50.806Z,32.70
2019-02-04T23:12:21.079Z,32.77
2019-02-04T23:14:51.076Z,32.80
2019-02-04T23:17:21.275Z,33.97
2019-02-04T23:19:51.363Z,28.37
2019-02-04T23:22:21.439Z,27.47
2019-02-04T23:24:51.706Z,27.23
2019-02-04T23:27:22.081Z,34.50
2019-02-04T23:29:54.646Z,35.60
2019-02-04T23:32:24.906Z,26.77
2019-02-04T23:34:54.887Z,28.13
2019-02-04T23:37:25.229Z,39.30
2019-02-04T23:39:57.066Z,31.10
2019-02-04T23:42:27.206Z,31.87
2019-02-04T23:44:57.246Z,32.13
2019-02-04T23:47:39.579Z,29.60
2019-02-04T23:50:10.210Z,34.03
2019-02-04T23:52:41.482Z,35.47
2019-02-04T23:55:11.845Z,38.47
2019-02-04T23:57:41.914Z,35.50
